createdAt,value
2019-04-29T00:03:18.188Z,3.33
2019-04-29T00:23:18.177Z,3.47
2019-04-29T00:33:16.172Z,3.50
2019-04-29T00:53:15.199Z,2.83
2019-04-29T01:03:16.311Z,2.78
2019-04-29T01:13:15.441Z,2.67
2019-04-29T01:23:15.300Z,2.99
2019-04-29T01:33:16.398Z,2.51
2019-04-29T01:43:15.511Z,2.48
2019-04-29T01:53:14.711Z,2.29
2019-04-29T02:03:14.457Z,1.65
2019-04-29T02:13:14.501Z,2.20
2019-04-29T02:33:15.413Z,2.39
2019-04-29T02:53:14.468Z,2.21
2019-04-29T03:03:13.471Z,1.68
2019-04-29T03:13:13.591Z,1.11
2019-04-29T03:23:13.525Z,1.17
2019-04-29T03:33:13.588Z,1.18
2019-04-29T03:53:14.618Z,1.77
2019-04-29T04:13:13.609Z,1.67
2019-04-29T04:23:13.715Z,1.34
2019-04-29T04:33:13.135Z,1.25
2019-04-29T04:43:12.685Z,1.88
2019-04-29T04:53:12.712Z,2.25
2019-04-29T05:03:11.753Z,1.92
2019-04-29T05:13:11.296Z,1.50
2019-04-29T05:23:10.777Z,1.69
2019-04-29T05:33:10.793Z,2.18
2019-04-29T05:43:09.825Z,2.64
2019-04-29T05:53:11.567Z,2.74
2019-04-29T06:03:09.913Z,3.79
2019-04-29T06:13:10.229Z,5.60
2019-04-29T06:43:09.485Z,5.39
2019-04-29T06:53:09.007Z,5.55
2019-04-29T07:13:07.044Z,6.69
2019-04-29T07:23:06.369Z,7.41
2019-04-29T07:33:05.621Z,8.23
2019-04-29T07:43:07.754Z,9.27
2019-04-29T07:53:05.106Z,9.91
2019-04-29T08:03:04.621Z,10.44
2019-04-29T08:13:04.317Z,10.88
2019-04-29T08:23:04.253Z,11.64
2019-04-29T08:33:07.588Z,12.26
2019-04-29T08:43:04.411Z,13.43
2019-04-29T08:53:04.197Z,13.40
2019-04-29T09:03:05.326Z,13.31
2019-04-29T09:13:05.371Z,12.79
2019-04-29T09:23:07.948Z,12.92
2019-04-29T09:33:08.678Z,14.13
2019-04-29T09:43:15.410Z,13.29
2019-04-29T10:03:04.449Z,14.05
2019-04-29T10:13:04.287Z,14.44
2019-04-29T10:23:03.485Z,14.03
2019-04-29T10:33:02.481Z,13.80
2019-04-29T10:43:04.040Z,13.01
2019-04-29T11:03:03.450Z,13.65
2019-04-29T11:13:02.698Z,14.51
2019-04-29T11:23:02.414Z,14.06
2019-04-29T11:33:04.633Z,13.79
2019-04-29T11:43:02.442Z,14.76
2019-04-29T11:53:01.555Z,14.74
2019-04-29T12:03:01.533Z,14.46
2019-04-29T12:13:00.444Z,14.87
2019-04-29T12:23:00.599Z,14.64
2019-04-29T12:33:01.399Z,14.68
2019-04-29T12:43:01.483Z,15.20
2019-04-29T12:53:00.491Z,15.05
2019-04-29T13:03:01.906Z,15.28
2019-04-29T13:13:00.534Z,15.53
2019-04-29T13:23:16.841Z,15.48
2019-04-29T13:33:01.167Z,14.88
2019-04-29T13:43:00.554Z,14.99
2019-04-29T13:53:01.338Z,14.95
2019-04-29T14:22:59.644Z,14.72
2019-04-29T14:33:01.851Z,14.54
2019-04-29T14:43:03.000Z,14.60
2019-04-29T15:03:00.837Z,14.64
2019-04-29T15:13:11.442Z,14.07
2019-04-29T15:22:58.724Z,13.69
2019-04-29T15:32:59.424Z,13.58
2019-04-29T15:42:56.950Z,13.47
2019-04-29T15:52:58.771Z,13.36
2019-04-29T16:02:55.856Z,13.17
2019-04-29T16:23:00.542Z,12.57
2019-04-29T16:32:56.198Z,12.56
2019-04-29T16:42:55.944Z,12.12
2019-04-29T16:52:54.846Z,11.80
2019-04-29T17:02:55.079Z,11.64
2019-04-29T17:12:55.131Z,11.58
2019-04-29T17:22:55.117Z,11.42
2019-04-29T17:32:55.658Z,11.43
2019-04-29T18:02:57.279Z,11.07
2019-04-29T18:12:53.153Z,11.09
2019-04-29T18:22:54.788Z,10.93
2019-04-29T18:32:53.067Z,10.84
2019-04-29T18:42:52.072Z,10.80
2019-04-29T18:52:53.259Z,10.78
2019-04-29T19:02:58.470Z,10.68
2019-04-29T19:23:05.003Z,10.10
2019-04-29T19:32:53.919Z,9.95
2019-04-29T19:42:52.079Z,9.85
2019-04-29T19:52:51.205Z,9.83
2019-04-29T20:22:51.254Z,9.72
2019-04-29T20:32:48.654Z,9.58
2019-04-29T20:42:49.472Z,9.48
2019-04-29T20:52:47.314Z,9.42
2019-04-29T21:02:48.914Z,9.43
2019-04-29T21:12:47.055Z,9.43
2019-04-29T21:22:47.512Z,9.42
2019-04-29T21:32:47.263Z,9.37
2019-04-29T21:52:48.367Z,9.27
2019-04-29T22:02:49.223Z,9.21
2019-04-29T22:12:50.858Z,9.22
2019-04-29T22:22:49.415Z,9.21
2019-04-29T22:32:51.663Z,9.16
2019-04-29T22:52:47.028Z,8.70
2019-04-29T23:12:49.266Z,8.39
2019-04-29T23:22:47.536Z,8.42
2019-04-29T23:32:47.548Z,8.52
2019-04-29T23:52:50.292Z,8.77
